Algoa, Arkansas
Current Conditions -  °F | °C
As of 7:56 PM on Tuesday 21 Oct 2014 (Local Time) from KM19 Reporting Station
Haze Haze  
Wind Chill: 61°   Ceiling: Unl
Heat Index: 61°   Visibility: 3mi
Dew Point: 53°   Wind: 5mph
Humidity: 75%   Direction: 70°ENE
Pressure: 30.09"   Gusts: NA
Location:  35.5678°N, 91.2073°W
Report Text: KM19 220056Z AUTO 07004KT 3SM HZ CLR 16/12 A3009 RMK AO2 T01610116 SLP189
Loading
Personal Weather Stations






























Interactive Weather Map
Tropical Storm Tracking
New forecast layout! Learn more

10-Day Weather Forecast

Advertisements
Track Severe Weather on mobile